»·PEaware :: ASA592 KPDX-KSNA

ASA592 :: KPDX-KSNA

FLIGHT INFORMATION

Flight Status: Arrived
Operator:
Alaska Airlines
More flights by this operator :: More flights under this callsign
Pilot: Jessica F. (17029)
Aircraft: BOEING 737-800
(B738)
More flights by this aircraft type
Origin: KPDX Portland Intl
United States
Destination: KSNA John Wayne-Orange Co
United States
More flights between these airports :: More routes between these airports
Route: +CASCD2 SMIGE Q9 SUNBE FRA REBRG OHSEA1
File this flight plan on PilotEdge
Remarks: PBN / A1B1C1D1S1S2 DOF / 180108 REG / N806SB EET / KZOA0044 KZLA0131 OPR / ASA PER / C RMK / TCAS SIMBRIEF
Altitude:
(Current/Filed)
35,000ft
Speed:
(Current/Filed)
461kts
Departed: 07-Jan-18 09:13 PM
Arrived: 07-Jan-18 11:54 PM
Distance/Time
Traveled:
747nm/2:41
Distance/Time
To Go:
Arrived

Flight Plot

Page will automatically refresh every two minutes.

Flight plan parsing failed; only flown route is shown


Map Options




Map Legend


Flown Route
Filed Route
Departure Airport
Arrival Airport
Navaid (VOR, NDB)
Fix

Horizontal Profiles

Position Reports

Time Latitude Longitude Heading Altitude Ground
Speed
07-Jan-18 20:47 45.589034 -122.595313 207 24ft 0kts
07-Jan-18 20:48 45.589034 -122.595313 207 24ft 0kts
07-Jan-18 20:49 45.589034 -122.595313 207 24ft 0kts
07-Jan-18 20:50 45.589034 -122.595313 207 24ft 0kts
07-Jan-18 20:51 45.589034 -122.595313 207 24ft 0kts
07-Jan-18 20:52 45.589034 -122.595313 207 24ft 0kts
07-Jan-18 20:53 45.589034 -122.595313 207 24ft 0kts
07-Jan-18 20:54 45.589034 -122.595313 207 24ft 0kts
07-Jan-18 20:55 45.589034 -122.595313 207 24ft 0kts
07-Jan-18 20:56 45.589034 -122.595313 207 24ft 0kts
07-Jan-18 20:57 45.589034 -122.595313 207 24ft 0kts
07-Jan-18 20:58 45.589034 -122.595313 207 24ft 0kts
07-Jan-18 20:59 45.589034 -122.595313 207 24ft 0kts
07-Jan-18 21:00 45.589034 -122.595313 207 24ft 0kts
07-Jan-18 21:01 45.589034 -122.595313 207 24ft 0kts
07-Jan-18 21:02 45.589034 -122.595313 207 24ft 0kts
07-Jan-18 21:03 45.589034 -122.595313 207 24ft 0kts
07-Jan-18 21:04 45.589034 -122.595313 207 24ft 0kts
07-Jan-18 21:05 45.589034 -122.595313 207 24ft 0kts
07-Jan-18 21:06 45.589047 -122.595303 208 24ft 1kts
07-Jan-18 21:07 45.589531 -122.594790 257 24ft 2kts
07-Jan-18 21:08 45.589475 -122.594427 299 24ft 0kts
07-Jan-18 21:09 45.589475 -122.594427 299 24ft 0kts
07-Jan-18 21:10 45.589475 -122.594427 299 24ft 0kts
07-Jan-18 21:11 45.589475 -122.594427 299 24ft 0kts
07-Jan-18 21:12 45.589475 -122.594427 299 24ft 0kts
07-Jan-18 21:13 45.589475 -122.594427 299 24ft 0kts
07-Jan-18 21:14 45.589493 -122.594472 299 24ft 1kts
07-Jan-18 21:15 45.590805 -122.597866 301 24ft 13kts
07-Jan-18 21:16 45.593008 -122.599509 39 24ft 10kts
07-Jan-18 21:17 45.594327 -122.597665 45 24ft 0kts
07-Jan-18 21:18 45.594421 -122.597528 45 24ft 6kts
07-Jan-18 21:19 45.589312 -122.581572 116 24ft 128kts
07-Jan-18 21:20 45.571179 -122.531545 97 1797ft 152kts
07-Jan-18 21:21 45.567976 -122.473764 93 3996ft 137kts
07-Jan-18 21:22 45.557032 -122.411304 103 5553ft 188kts
07-Jan-18 21:23 45.542374 -122.333931 113 6992ft 214kts
07-Jan-18 21:24 45.495688 -122.282246 144 7002ft 216kts
07-Jan-18 21:25 45.437516 -122.260948 166 8031ft 223kts
07-Jan-18 21:26 45.377956 -122.244219 166 9532ft 215kts
07-Jan-18 21:27 45.320282 -122.227489 169 11021ft 215kts
07-Jan-18 21:28 45.260407 -122.210100 172 12512ft 225kts
07-Jan-18 21:29 45.197208 -122.191792 172 14068ft 251kts
07-Jan-18 21:30 45.123039 -122.170236 172 15653ft 291kts
07-Jan-18 21:31 45.045052 -122.142181 159 17124ft 301kts
07-Jan-18 21:32 44.969611 -122.090758 159 18596ft 307kts
07-Jan-18 21:33 44.893410 -122.040106 160 20043ft 313kts
07-Jan-18 21:34 44.814335 -121.987749 160 21565ft 319kts
07-Jan-18 21:35 44.733670 -121.934349 160 23078ft 326kts
07-Jan-18 21:36 44.651046 -121.879637 160 24598ft 332kts
07-Jan-18 21:37 44.566503 -121.823640 160 26116ft 341kts
07-Jan-18 21:38 44.479890 -121.766252 160 27630ft 350kts
07-Jan-18 21:39 44.391394 -121.707593 160 29135ft 357kts
07-Jan-18 21:40 44.301210 -121.647791 160 30627ft 361kts
07-Jan-18 21:41 44.211339 -121.588179 160 32086ft 359kts
07-Jan-18 21:42 44.122703 -121.529355 160 33526ft 351kts
07-Jan-18 21:43 44.037129 -121.472543 161 34922ft 337kts
07-Jan-18 21:44 43.949605 -121.414568 160 35034ft 362kts
07-Jan-18 21:45 43.857384 -121.353360 160 35040ft 390kts
07-Jan-18 21:46 43.751339 -121.324999 176 35033ft 408kts
07-Jan-18 21:47 43.637753 -121.301072 175 35020ft 415kts
07-Jan-18 21:48 43.524057 -121.276982 175 35020ft 415kts
07-Jan-18 21:49 43.410057 -121.252837 175 35028ft 420kts
07-Jan-18 21:50 43.296814 -121.228806 175 35018ft 416kts
07-Jan-18 21:51 43.182071 -121.204482 175 35017ft 416kts
07-Jan-18 21:52 43.068513 -121.180403 175 35016ft 416kts
07-Jan-18 21:53 42.954539 -121.156231 175 35066ft 415kts
07-Jan-18 21:54 42.843781 -121.132741 175 35104ft 415kts
07-Jan-18 21:55 42.729858 -121.108575 175 35104ft 415kts
07-Jan-18 21:56 42.616446 -121.084516 175 35103ft 415kts
07-Jan-18 21:57 42.504965 -121.060863 175 35102ft 415kts
07-Jan-18 21:58 42.391552 -121.036796 175 35101ft 415kts
07-Jan-18 21:59 42.277726 -121.012643 175 35100ft 414kts
07-Jan-18 22:00 42.165033 -120.988726 175 35099ft 414kts
07-Jan-18 22:01 42.050920 -120.964506 175 35098ft 414kts
07-Jan-18 22:02 41.937792 -120.940493 175 35096ft 413kts
07-Jan-18 22:03 41.827965 -120.917178 175 35106ft 413kts
07-Jan-18 22:04 41.716006 -120.893409 175 35105ft 413kts
07-Jan-18 22:05 41.602597 -120.869329 176 35104ft 412kts
07-Jan-18 22:06 41.489671 -120.845352 176 35103ft 412kts
07-Jan-18 22:07 41.376937 -120.821414 176 35102ft 412kts
07-Jan-18 22:08 41.264355 -120.797505 176 35074ft 411kts
07-Jan-18 22:09 41.151784 -120.773598 176 35073ft 411kts
07-Jan-18 22:10 41.039480 -120.749747 176 35072ft 411kts
07-Jan-18 22:11 40.927907 -120.719345 172 35121ft 413kts
07-Jan-18 22:12 40.820809 -120.687521 173 35135ft 412kts
07-Jan-18 22:13 40.709407 -120.654831 173 35134ft 412kts
07-Jan-18 22:14 40.597956 -120.622161 173 35134ft 412kts
07-Jan-18 22:15 40.488409 -120.590043 173 35132ft 411kts
07-Jan-18 22:16 40.377222 -120.557440 173 35131ft 411kts
07-Jan-18 22:17 40.266230 -120.524887 173 35130ft 411kts
07-Jan-18 22:18 40.154895 -120.492224 173 35129ft 410kts
07-Jan-18 22:19 40.043318 -120.459399 177 35128ft 413kts
07-Jan-18 22:20 39.931812 -120.426751 177 35131ft 413kts
07-Jan-18 22:21 39.842870 -120.400652 177 35142ft 413kts
07-Jan-18 22:22 39.750008 -120.373389 177 35193ft 412kts
07-Jan-18 22:23 39.622088 -120.335883 177 35187ft 404kts
07-Jan-18 22:24 39.512594 -120.303814 178 35180ft 412kts
07-Jan-18 22:25 39.401481 -120.271141 178 35178ft 411kts
07-Jan-18 22:26 39.290869 -120.238647 178 35150ft 409kts
07-Jan-18 22:27 39.198467 -120.211500 177 35149ft 410kts
07-Jan-18 22:28 39.087690 -120.178946 177 35148ft 410kts
07-Jan-18 22:29 38.958939 -120.141101 177 35147ft 409kts
07-Jan-18 22:30 38.871252 -120.115330 177 35161ft 409kts
07-Jan-18 22:31 38.760837 -120.082867 177 35158ft 408kts
07-Jan-18 22:32 38.650721 -120.050489 177 35157ft 409kts
07-Jan-18 22:33 38.540404 -120.018047 177 35156ft 409kts
07-Jan-18 22:34 38.430316 -119.985666 177 35155ft 408kts
07-Jan-18 22:35 38.320041 -119.953230 177 35154ft 408kts
07-Jan-18 22:36 38.209967 -119.920846 177 35153ft 408kts
07-Jan-18 22:37 38.100377 -119.888602 177 35126ft 408kts
07-Jan-18 22:38 37.990569 -119.856289 177 35124ft 408kts
07-Jan-18 22:39 37.882347 -119.824438 177 35135ft 408kts
07-Jan-18 22:40 37.772258 -119.792031 177 35136ft 407kts
07-Jan-18 22:41 37.662523 -119.759733 177 35135ft 407kts
07-Jan-18 22:42 37.552913 -119.727462 177 35195ft 407kts
07-Jan-18 22:43 37.443397 -119.695210 177 35216ft 406kts
07-Jan-18 22:44 37.333796 -119.662947 177 35150ft 407kts
07-Jan-18 22:45 37.223890 -119.630584 176 35114ft 407kts
07-Jan-18 22:46 37.114062 -119.598261 177 35112ft 406kts
07-Jan-18 22:47 37.005564 -119.596826 189 35110ft 390kts
07-Jan-18 22:48 36.898216 -119.598916 189 35110ft 391kts
07-Jan-18 22:49 36.791514 -119.600773 189 35122ft 390kts
07-Jan-18 22:50 36.683203 -119.602635 189 35120ft 391kts
07-Jan-18 22:51 36.574839 -119.604493 189 35119ft 390kts
07-Jan-18 22:52 36.466587 -119.606350 189 35117ft 390kts
07-Jan-18 22:53 36.358568 -119.608203 189 35116ft 390kts
07-Jan-18 22:54 36.250068 -119.610064 189 35114ft 390kts
07-Jan-18 22:55 36.141864 -119.611920 189 35113ft 390kts
07-Jan-18 22:56 36.034840 -119.613756 189 35111ft 390kts
07-Jan-18 22:57 35.927760 -119.625009 197 35108ft 382kts
07-Jan-18 22:58 35.831230 -119.645160 197 35122ft 382kts
07-Jan-18 22:59 35.726696 -119.666511 196 35116ft 387kts
07-Jan-18 23:00 35.616841 -119.657907 165 35135ft 427kts
07-Jan-18 23:01 35.524089 -119.606829 165 35117ft 427kts
07-Jan-18 23:02 35.401629 -119.539846 164 35123ft 437kts
07-Jan-18 23:03 35.291192 -119.479360 165 35117ft 427kts
07-Jan-18 23:04 35.183245 -119.420345 165 35117ft 430kts
07-Jan-18 23:05 35.074385 -119.360787 164 35116ft 430kts
07-Jan-18 23:06 34.975148 -119.306518 165 35102ft 429kts
07-Jan-18 23:07 34.874790 -119.251599 165 35114ft 430kts
07-Jan-18 23:08 34.767072 -119.192625 165 35140ft 431kts
07-Jan-18 23:09 34.660546 -119.127852 161 35193ft 436kts
07-Jan-18 23:10 34.554187 -119.059881 161 35193ft 437kts
07-Jan-18 23:11 34.448598 -118.991449 160 34118ft 432kts
07-Jan-18 23:12 34.346945 -118.924038 159 32088ft 417kts
07-Jan-18 23:13 34.250230 -118.859871 158 29842ft 397kts
07-Jan-18 23:14 34.154000 -118.815727 167 27379ft 367kts
07-Jan-18 23:15 34.062145 -118.779832 165 24835ft 335kts
07-Jan-18 23:16 33.975463 -118.746373 164 22005ft 326kts
07-Jan-18 23:17 33.893870 -118.714817 164 19160ft 312kts
07-Jan-18 23:18 33.813395 -118.683785 164 16285ft 303kts
07-Jan-18 23:19 33.734767 -118.653669 165 14008ft 289kts
07-Jan-18 23:20 33.656151 -118.626099 165 13994ft 297kts
07-Jan-18 23:21 33.583528 -118.582088 126 12486ft 304kts
07-Jan-18 23:22 33.539619 -118.499470 124 9996ft 287kts
07-Jan-18 23:23 33.520444 -118.415896 92 8913ft 246kts
07-Jan-18 23:24 33.518513 -118.335000 85 7660ft 249kts
07-Jan-18 23:25 33.528730 -118.256709 116 6414ft 243kts
07-Jan-18 23:26 33.473441 -118.238194 222 5205ft 236kts
07-Jan-18 23:27 33.435595 -118.291985 274 5134ft 228kts
07-Jan-18 23:28 33.480307 -118.330842 16 5034ft 227kts
07-Jan-18 23:29 33.529689 -118.284486 42 5020ft 227kts
07-Jan-18 23:30 33.576604 -118.233815 42 5020ft 227kts
07-Jan-18 23:31 33.620328 -118.180245 52 4978ft 225kts
07-Jan-18 23:32 33.658813 -118.121124 52 4966ft 226kts
07-Jan-18 23:33 33.697348 -118.061898 52 4966ft 226kts
07-Jan-18 23:34 33.735326 -118.003515 51 4966ft 226kts
07-Jan-18 23:35 33.771603 -117.947131 51 4597ft 228kts
07-Jan-18 23:36 33.810640 -117.890526 42 3445ft 228kts
07-Jan-18 23:37 33.856280 -117.841055 41 2996ft 218kts
07-Jan-18 23:38 33.865250 -117.779756 120 3015ft 202kts
07-Jan-18 23:39 33.814834 -117.763081 191 3020ft 204kts
07-Jan-18 23:40 33.763644 -117.792786 209 2992ft 207kts
07-Jan-18 23:41 33.723199 -117.828782 216 2723ft 156kts
07-Jan-18 23:42 33.688468 -117.857370 208 2755ft 152kts
07-Jan-18 23:43 33.642267 -117.881212 187 3677ft 199kts
07-Jan-18 23:44 33.586328 -117.890010 186 4370ft 211kts
07-Jan-18 23:45 33.532225 -117.911667 236 4998ft 216kts
07-Jan-18 23:46 33.534643 -117.981926 281 4993ft 217kts
07-Jan-18 23:47 33.558466 -118.045446 333 5000ft 218kts
07-Jan-18 23:48 33.615210 -118.068824 341 4978ft 215kts
07-Jan-18 23:49 33.668082 -118.089507 342 4966ft 214kts
07-Jan-18 23:50 33.728167 -118.113003 342 4966ft 214kts
07-Jan-18 23:51 33.779991 -118.100171 59 4976ft 214kts
07-Jan-18 23:52 33.807880 -118.037850 62 4977ft 214kts
07-Jan-18 23:53 33.835464 -117.975438 61 4992ft 215kts
07-Jan-18 23:54 33.852065 -117.909944 108 4807ft 213kts
07-Jan-18 23:55 33.831874 -117.848599 111 3694ft 195kts
07-Jan-18 23:56 33.796982 -117.807601 170 2991ft 187kts
07-Jan-18 23:57 33.752255 -117.821869 201 2556ft 150kts
07-Jan-18 23:58 33.715132 -117.843815 206 998ft 147kts
07-Jan-18 23:59 33.680620 -117.865631 206 64ft 119kts
08-Jan-18 00:00 33.670630 -117.871922 201 64ft 33kts
08-Jan-18 00:01 33.671339 -117.868685 35 64ft 24kts
08-Jan-18 00:02 33.674786 -117.865934 21 63ft 7kts
08-Jan-18 00:03 33.678073 -117.863930 28 63ft 13kts
08-Jan-18 00:04 33.678742 -117.862846 92 63ft 0kts
08-Jan-18 00:05 33.678742 -117.862846 92 63ft 0kts
08-Jan-18 00:06 33.678742 -117.862846 92 63ft 0kts
08-Jan-18 00:07 33.678742 -117.862846 92 63ft 0kts

Navigation Log

Ident Type
Flight plan parsing failed, navigation log unavailable